createdAt,value
2017-06-27T00:01:15.926Z,22.72
2017-06-27T00:02:15.780Z,22.7
2017-06-27T00:03:15.714Z,22.69
2017-06-27T00:04:15.651Z,22.66
2017-06-27T00:05:15.589Z,22.7
2017-06-27T00:06:15.537Z,22.69
2017-06-27T00:07:15.144Z,22.63
2017-06-27T00:08:15.401Z,22.66
2017-06-27T00:09:15.335Z,22.69
2017-06-27T00:10:15.281Z,22.57
2017-06-27T00:11:15.220Z,22.65
2017-06-27T00:12:15.156Z,22.69
2017-06-27T00:13:15.091Z,22.72
2017-06-27T00:14:15.035Z,22.7
2017-06-27T00:15:14.975Z,22.72
2017-06-27T00:16:14.904Z,22.69
2017-06-27T00:17:14.839Z,22.65
2017-06-27T00:18:14.775Z,22.7
2017-06-27T00:19:14.715Z,22.65
2017-06-27T00:20:14.655Z,22.7
2017-06-27T00:21:14.593Z,22.63
2017-06-27T00:22:14.197Z,22.63
2017-06-27T00:23:14.466Z,22.66
2017-06-27T00:24:14.404Z,22.72
2017-06-27T00:25:14.337Z,22.75
2017-06-27T00:26:14.277Z,22.65
2017-06-27T00:27:14.211Z,22.63
2017-06-27T00:28:14.155Z,22.72
2017-06-27T00:29:14.089Z,22.7
2017-06-27T00:30:14.023Z,22.78
2017-06-27T00:31:13.963Z,22.73
2017-06-27T00:32:13.900Z,22.6
2017-06-27T00:33:13.836Z,22.7
2017-06-27T00:34:13.773Z,22.7
2017-06-27T00:35:13.713Z,22.69
2017-06-27T00:36:13.649Z,22.68
2017-06-27T00:37:13.590Z,22.73
2017-06-27T00:38:13.522Z,22.7
2017-06-27T00:39:13.462Z,22.59
2017-06-27T00:40:13.399Z,22.75
2017-06-27T00:41:13.337Z,22.68
2017-06-27T00:42:12.949Z,22.7
2017-06-27T00:43:13.210Z,22.62
2017-06-27T00:44:13.148Z,22.65
2017-06-27T00:45:13.090Z,22.68
2017-06-27T00:46:13.023Z,22.65
2017-06-27T00:47:12.959Z,22.69
2017-06-27T00:48:12.902Z,22.66
2017-06-27T00:49:12.857Z,22.62
2017-06-27T00:50:12.786Z,22.65
2017-06-27T00:51:12.719Z,22.73
2017-06-27T00:52:12.660Z,22.75
2017-06-27T00:53:12.585Z,22.65
2017-06-27T00:54:12.528Z,22.72
2017-06-27T00:55:12.471Z,22.57
2017-06-27T00:56:12.395Z,22.69
2017-06-27T00:57:12.336Z,22.7
2017-06-27T00:58:12.291Z,22.63
2017-06-27T00:59:12.226Z,22.7
2017-06-27T01:00:12.153Z,22.7
2017-06-27T01:01:12.085Z,22.72
2017-06-27T01:02:12.022Z,22.68
2017-06-27T01:03:11.630Z,22.6
2017-06-27T01:04:11.894Z,22.7
2017-06-27T01:05:11.833Z,22.7
2017-06-27T01:06:11.770Z,22.69
2017-06-27T01:07:11.706Z,22.62
2017-06-27T01:08:11.644Z,22.63
2017-06-27T01:09:11.588Z,22.59
2017-06-27T01:10:11.521Z,22.62
2017-06-27T01:11:11.455Z,22.75
2017-06-27T01:12:11.395Z,22.62
2017-06-27T01:13:11.332Z,22.63
2017-06-27T01:14:11.271Z,22.73
2017-06-27T01:15:11.307Z,22.73
2017-06-27T01:16:11.145Z,22.65
2017-06-27T01:17:11.082Z,22.62
2017-06-27T01:18:11.019Z,22.63
2017-06-27T01:19:10.957Z,22.63
2017-06-27T01:20:10.896Z,22.62
2017-06-27T01:21:10.832Z,22.65
2017-06-27T01:22:10.767Z,22.73
2017-06-27T01:23:10.709Z,22.62
2017-06-27T01:24:10.313Z,22.7
2017-06-27T01:25:10.584Z,22.68
2017-06-27T01:26:10.518Z,22.7
2017-06-27T01:27:10.126Z,22.65
2017-06-27T01:28:10.063Z,22.6
2017-06-27T01:29:10.328Z,22.65
2017-06-27T01:30:10.268Z,22.6
2017-06-27T01:31:10.206Z,22.62
2017-06-27T01:32:10.141Z,22.69
2017-06-27T01:33:10.080Z,22.63
2017-06-27T01:34:10.017Z,22.62
2017-06-27T01:35:09.955Z,22.63
2017-06-27T01:36:09.893Z,22.66
2017-06-27T01:37:09.833Z,22.68
2017-06-27T01:38:09.437Z,22.62
2017-06-27T01:39:09.703Z,22.62
2017-06-27T01:40:09.643Z,22.65
2017-06-27T01:41:09.583Z,22.62
2017-06-27T01:42:09.516Z,22.57
2017-06-27T01:43:09.458Z,22.7
2017-06-27T01:44:09.394Z,22.68
2017-06-27T01:45:09.568Z,22.63
2017-06-27T01:46:09.267Z,22.6
2017-06-27T01:47:09.204Z,22.63
2017-06-27T01:48:09.143Z,22.66
2017-06-27T01:49:08.751Z,22.65
2017-06-27T01:50:09.016Z,22.65
2017-06-27T01:51:08.954Z,22.63
2017-06-27T01:52:08.892Z,22.63
2017-06-27T01:53:08.828Z,22.62
2017-06-27T01:54:08.763Z,22.62
2017-06-27T01:55:08.702Z,22.66
2017-06-27T01:56:08.640Z,22.68
2017-06-27T01:57:08.577Z,22.62
2017-06-27T01:58:08.205Z,22.63
2017-06-27T01:59:08.127Z,22.68
2017-06-27T02:00:08.060Z,22.63
2017-06-27T02:01:08.326Z,22.68
2017-06-27T02:02:07.934Z,22.6
2017-06-27T02:03:08.201Z,22.68
2017-06-27T02:04:08.139Z,22.66
2017-06-27T02:05:08.075Z,22.68
2017-06-27T02:06:08.013Z,22.65
2017-06-27T02:07:07.947Z,22.54
2017-06-27T02:08:07.886Z,22.63
2017-06-27T02:09:07.826Z,22.59
2017-06-27T02:10:07.786Z,22.66
2017-06-27T02:11:07.375Z,22.66
2017-06-27T02:12:07.638Z,22.68
2017-06-27T02:13:07.583Z,22.66
2017-06-27T02:14:07.534Z,22.7
2017-06-27T02:15:07.145Z,22.63
2017-06-27T02:16:07.398Z,22.65
2017-06-27T02:17:07.322Z,22.68
2017-06-27T02:18:07.276Z,22.62
2017-06-27T02:19:07.198Z,22.7
2017-06-27T02:20:06.809Z,22.54
2017-06-27T02:21:07.076Z,22.63
2017-06-27T02:22:07.010Z,22.65
2017-06-27T02:23:06.950Z,22.65
2017-06-27T02:24:06.561Z,22.6
2017-06-27T02:25:06.828Z,22.62
2017-06-27T02:26:06.758Z,22.6
2017-06-27T02:27:06.695Z,22.68
2017-06-27T02:28:06.635Z,22.7
2017-06-27T02:29:06.574Z,22.68
2017-06-27T02:30:06.518Z,22.72
2017-06-27T02:31:06.448Z,22.63
2017-06-27T02:32:06.384Z,22.65
2017-06-27T02:33:06.322Z,22.66
2017-06-27T02:34:06.260Z,22.69
2017-06-27T02:35:06.194Z,22.62
2017-06-27T02:36:06.134Z,22.7
2017-06-27T02:37:06.071Z,22.62
2017-06-27T02:38:05.683Z,22.66
2017-06-27T02:39:05.946Z,22.63
2017-06-27T02:40:05.882Z,22.62
2017-06-27T02:41:05.824Z,22.54
2017-06-27T02:42:05.756Z,22.69
2017-06-27T02:43:05.696Z,22.62
2017-06-27T02:44:05.664Z,22.62
2017-06-27T02:45:04.913Z,22.65
2017-06-27T02:46:05.505Z,22.6
2017-06-27T02:47:05.444Z,22.66
2017-06-27T02:48:05.377Z,22.6
2017-06-27T02:49:05.317Z,22.57
2017-06-27T02:50:05.254Z,22.57
2017-06-27T02:51:05.195Z,22.68
2017-06-27T02:52:05.144Z,22.69
2017-06-27T02:53:05.073Z,22.65
2017-06-27T02:54:05.005Z,22.57
2017-06-27T02:55:04.947Z,22.65
2017-06-27T02:56:04.879Z,22.65
2017-06-27T02:57:04.814Z,22.65
2017-06-27T02:58:04.753Z,22.69
2017-06-27T02:59:04.692Z,22.63
2017-06-27T03:00:04.630Z,22.66
2017-06-27T03:01:04.565Z,22.66
2017-06-27T03:02:04.506Z,22.57
2017-06-27T03:03:04.450Z,22.55
2017-06-27T03:04:04.376Z,22.62
2017-06-27T03:05:04.314Z,22.62
2017-06-27T03:06:04.252Z,22.68
2017-06-27T03:07:04.188Z,22.57
2017-06-27T03:08:04.126Z,22.62
2017-06-27T03:09:04.068Z,22.7
2017-06-27T03:10:04.005Z,22.57
2017-06-27T03:11:03.947Z,22.7
2017-06-27T03:12:03.884Z,22.62
2017-06-27T03:13:03.816Z,22.6
2017-06-27T03:14:03.752Z,22.62
2017-06-27T03:15:03.689Z,22.66
2017-06-27T03:16:03.625Z,22.68
2017-06-27T03:17:03.239Z,22.6
2017-06-27T03:18:03.518Z,22.62
2017-06-27T03:19:03.446Z,22.66
2017-06-27T03:20:03.377Z,22.6
2017-06-27T03:21:03.047Z,22.62
2017-06-27T03:22:03.250Z,22.53
2017-06-27T03:23:03.191Z,22.62
2017-06-27T03:24:03.149Z,22.57
2017-06-27T03:25:03.074Z,22.69
2017-06-27T03:26:03.000Z,22.55
2017-06-27T03:27:02.938Z,22.63
2017-06-27T03:28:02.874Z,22.63
2017-06-27T03:29:02.809Z,22.65
2017-06-27T03:30:02.749Z,22.53
2017-06-27T03:31:02.684Z,22.6
2017-06-27T03:32:02.651Z,22.54
2017-06-27T03:33:02.557Z,22.66
2017-06-27T03:34:02.498Z,22.59
2017-06-27T03:35:02.644Z,22.55
2017-06-27T03:36:02.372Z,22.62
2017-06-27T03:37:02.309Z,22.51
2017-06-27T03:38:02.252Z,22.59
2017-06-27T03:39:02.186Z,22.65
2017-06-27T03:40:02.120Z,22.59
2017-06-27T03:41:02.057Z,22.57
2017-06-27T03:42:01.995Z,22.51
2017-06-27T03:43:02.137Z,22.63
2017-06-27T03:44:01.779Z,22.48
2017-06-27T03:45:01.810Z,22.66
2017-06-27T03:46:02.353Z,22.59
2017-06-27T03:47:01.680Z,22.55
2017-06-27T03:48:01.617Z,22.59
2017-06-27T03:49:01.762Z,22.62
2017-06-27T03:50:01.496Z,22.57
2017-06-27T03:51:01.431Z,22.59
2017-06-27T03:52:01.372Z,22.63
2017-06-27T03:53:01.307Z,22.6
2017-06-27T03:54:00.917Z,22.6
2017-06-27T03:55:01.190Z,22.57
2017-06-27T03:56:13.855Z,22.66
2017-06-27T03:57:00.727Z,22.62
2017-06-27T03:58:00.993Z,22.55
2017-06-27T03:59:00.931Z,22.63
2017-06-27T04:00:00.866Z,22.65
2017-06-27T04:01:00.807Z,22.54
2017-06-27T04:02:00.740Z,22.59
2017-06-27T04:03:00.676Z,22.6
2017-06-27T04:04:00.615Z,22.5
2017-06-27T04:05:00.562Z,22.59
2017-06-27T04:06:00.492Z,22.55
2017-06-27T04:07:00.426Z,22.57
2017-06-27T04:08:00.364Z,22.55
2017-06-27T04:09:00.303Z,22.55
2017-06-27T04:10:00.280Z,22.57
2017-06-27T04:11:00.209Z,22.59
2017-06-27T04:12:00.143Z,22.54
2017-06-27T04:13:00.080Z,22.59
2017-06-27T04:14:00.022Z,22.51
2017-06-27T04:14:59.957Z,22.57
2017-06-27T04:15:59.896Z,22.53
2017-06-27T04:16:59.832Z,22.6
2017-06-27T04:17:59.766Z,22.5
2017-06-27T04:18:59.704Z,22.54
2017-06-27T04:19:59.642Z,22.48
2017-06-27T04:20:59.781Z,22.54
2017-06-27T04:21:59.516Z,22.43
2017-06-27T04:22:59.453Z,22.55
2017-06-27T04:23:59.392Z,22.54
2017-06-27T04:24:59.330Z,22.47
2017-06-27T04:25:58.614Z,22.45
2017-06-27T04:26:59.211Z,22.47
2017-06-27T04:27:58.809Z,22.53
2017-06-27T04:28:58.745Z,22.47
2017-06-27T04:29:59.016Z,22.43
2017-06-27T04:30:58.621Z,22.53
2017-06-27T04:31:58.893Z,22.44
2017-06-27T04:32:58.678Z,22.5
2017-06-27T04:33:58.736Z,22.44
2017-06-27T04:34:58.675Z,22.45
2017-06-27T04:35:58.608Z,22.43
2017-06-27T04:36:58.543Z,22.44
2017-06-27T04:37:58.483Z,22.48
2017-06-27T04:38:58.419Z,22.45
2017-06-27T04:39:58.355Z,22.41
2017-06-27T04:40:58.291Z,22.43
2017-06-27T04:41:57.901Z,22.44
2017-06-27T04:42:58.164Z,22.44
2017-06-27T04:43:57.775Z,22.44
2017-06-27T04:44:58.062Z,22.43
2017-06-27T04:45:57.977Z,22.39
2017-06-27T04:46:57.914Z,22.41
2017-06-27T04:47:57.853Z,22.45
2017-06-27T04:48:57.462Z,22.39
2017-06-27T04:49:57.399Z,22.38
2017-06-27T04:50:57.664Z,22.38
2017-06-27T04:51:57.603Z,22.45
2017-06-27T04:52:57.538Z,22.36
2017-06-27T04:53:57.473Z,22.39
2017-06-27T04:54:57.409Z,22.36
2017-06-27T04:55:57.353Z,22.38
2017-06-27T04:56:57.285Z,22.44
2017-06-27T04:57:57.222Z,22.38
2017-06-27T04:58:57.161Z,22.39
2017-06-27T04:59:57.101Z,22.43
2017-06-27T05:00:57.036Z,22.36
2017-06-27T05:01:56.971Z,22.41
2017-06-27T05:02:56.907Z,22.44
2017-06-27T05:03:56.515Z,22.45
2017-06-27T05:04:56.778Z,22.44
2017-06-27T05:05:56.723Z,22.43
2017-06-27T05:06:56.655Z,22.41
2017-06-27T05:07:56.598Z,22.33
2017-06-27T05:08:56.529Z,22.33
2017-06-27T05:09:56.467Z,22.43
2017-06-27T05:10:56.086Z,22.35
2017-06-27T05:11:56.346Z,22.43
2017-06-27T05:12:56.321Z,22.38
2017-06-27T05:13:56.225Z,22.35
2017-06-27T05:14:56.151Z,22.38
2017-06-27T05:15:56.339Z,22.36
2017-06-27T05:16:56.030Z,22.38
2017-06-27T05:17:55.962Z,22.35
2017-06-27T05:18:55.898Z,22.39
2017-06-27T05:19:55.839Z,22.39
2017-06-27T05:20:55.774Z,22.38
2017-06-27T05:21:55.710Z,22.33
2017-06-27T05:22:55.645Z,22.35
2017-06-27T05:23:55.585Z,22.33
2017-06-27T05:24:55.521Z,22.39
2017-06-27T05:25:55.455Z,22.32
2017-06-27T05:26:55.404Z,22.36
2017-06-27T05:27:55.332Z,22.35
2017-06-27T05:28:55.266Z,22.35
2017-06-27T05:29:55.205Z,22.38
2017-06-27T05:30:55.142Z,22.33
2017-06-27T05:31:55.078Z,22.36
2017-06-27T05:32:55.016Z,22.35
2017-06-27T05:33:54.952Z,22.32
2017-06-27T05:34:54.890Z,22.23
2017-06-27T05:35:54.859Z,22.33
2017-06-27T05:36:54.762Z,22.32
2017-06-27T05:37:54.703Z,22.35
2017-06-27T05:38:54.315Z,22.3
2017-06-27T05:39:54.581Z,22.26
2017-06-27T05:40:54.513Z,22.25
2017-06-27T05:41:53.794Z,22.28
2017-06-27T05:42:54.386Z,22.28
2017-06-27T05:43:53.666Z,22.25
2017-06-27T05:44:53.929Z,22.29
2017-06-27T05:45:54.195Z,22.32
2017-06-27T05:46:54.132Z,22.29
2017-06-27T05:47:54.069Z,22.3
2017-06-27T05:48:54.007Z,22.29
2017-06-27T05:49:53.616Z,22.23
2017-06-27T05:50:53.882Z,22.26
2017-06-27T05:51:53.816Z,22.23
2017-06-27T05:52:53.755Z,22.29
2017-06-27T05:53:53.691Z,22.22
2017-06-27T05:54:53.639Z,22.25
2017-06-27T05:55:53.567Z,22.26
2017-06-27T05:56:53.174Z,22.25
2017-06-27T05:57:53.437Z,22.2
2017-06-27T05:58:53.373Z,22.26
2017-06-27T05:59:53.310Z,22.23
2017-06-27T06:00:53.251Z,22.26
2017-06-27T06:01:53.185Z,22.29
2017-06-27T06:02:53.121Z,22.26
2017-06-27T06:03:53.059Z,22.28
2017-06-27T06:04:52.994Z,22.25
2017-06-27T06:05:52.933Z,22.18
2017-06-27T06:06:52.867Z,22.32
2017-06-27T06:07:52.806Z,22.23
2017-06-27T06:08:52.744Z,22.28
2017-06-27T06:09:52.677Z,22.29
2017-06-27T06:10:52.620Z,22.26
2017-06-27T06:11:52.553Z,22.3
2017-06-27T06:12:52.490Z,22.14
2017-06-27T06:13:52.425Z,22.32
2017-06-27T06:14:52.363Z,22.29
2017-06-27T06:15:52.300Z,22.33
2017-06-27T06:16:52.236Z,22.26
2017-06-27T06:17:51.844Z,22.29
2017-06-27T06:18:52.111Z,22.23
2017-06-27T06:19:52.046Z,22.26
2017-06-27T06:20:51.986Z,22.13
2017-06-27T06:21:51.926Z,22.23
2017-06-27T06:22:51.865Z,22.17
2017-06-27T06:23:51.469Z,22.17
2017-06-27T06:24:51.767Z,22.2
2017-06-27T06:25:51.679Z,22.2
2017-06-27T06:26:51.611Z,22.22
2017-06-27T06:27:51.542Z,22.2
2017-06-27T06:28:51.481Z,22.17
2017-06-27T06:29:51.416Z,22.2
2017-06-27T06:30:51.353Z,22.18
2017-06-27T06:31:51.290Z,22.23
2017-06-27T06:32:51.229Z,22.2
2017-06-27T06:33:51.169Z,22.18
2017-06-27T06:34:51.097Z,22.18
2017-06-27T06:35:51.036Z,22.14
2017-06-27T06:36:50.973Z,22.2
2017-06-27T06:37:50.582Z,22.13
2017-06-27T06:38:50.846Z,22.29
2017-06-27T06:39:50.456Z,22.29
2017-06-27T06:40:50.746Z,22.25
2017-06-27T06:41:50.391Z,22.29
2017-06-27T06:42:50.595Z,22.28
2017-06-27T06:43:50.530Z,22.29
2017-06-27T06:44:50.673Z,22.17
2017-06-27T06:45:50.408Z,22.26
2017-06-27T06:46:50.341Z,22.2
2017-06-27T06:47:50.280Z,22.18
2017-06-27T06:48:50.215Z,22.22
2017-06-27T06:49:49.822Z,22.23
2017-06-27T06:50:50.092Z,22.2
2017-06-27T06:51:50.025Z,22.28
2017-06-27T06:52:49.964Z,22.25
2017-06-27T06:53:49.573Z,22.28
2017-06-27T06:54:49.837Z,22.33
2017-06-27T06:55:49.779Z,22.32
2017-06-27T06:56:49.386Z,22.3
2017-06-27T06:57:49.645Z,22.25
2017-06-27T06:58:49.583Z,22.23
2017-06-27T06:59:49.524Z,22.2
2017-06-27T07:00:49.456Z,22.32
2017-06-27T07:01:49.393Z,22.22
2017-06-27T07:02:49.331Z,22.23
2017-06-27T07:03:49.266Z,22.25
2017-06-27T07:04:49.206Z,22.32
2017-06-27T07:05:48.817Z,22.22
2017-06-27T07:06:49.079Z,22.23
2017-06-27T07:07:49.020Z,22.26
2017-06-27T07:08:48.952Z,22.28
2017-06-27T07:09:48.890Z,22.25
2017-06-27T07:10:48.827Z,22.22
2017-06-27T07:11:48.441Z,22.28
2017-06-27T07:12:48.382Z,22.28
2017-06-27T07:13:48.637Z,22.3
2017-06-27T07:14:48.575Z,22.3
2017-06-27T07:15:47.855Z,22.3
2017-06-27T07:16:48.446Z,22.26
2017-06-27T07:17:48.386Z,22.25
2017-06-27T07:18:48.320Z,22.22
2017-06-27T07:19:47.931Z,22.23
2017-06-27T07:20:47.907Z,22.26
2017-06-27T07:21:47.806Z,22.26
2017-06-27T07:22:48.072Z,22.26
2017-06-27T07:23:48.007Z,22.23
2017-06-27T07:24:47.816Z,22.35
2017-06-27T07:25:47.877Z,22.3
2017-06-27T07:26:47.814Z,22.23
2017-06-27T07:27:47.759Z,22.33
2017-06-27T07:28:47.691Z,22.25
2017-06-27T07:29:47.625Z,22.26
2017-06-27T07:30:47.563Z,22.3
2017-06-27T07:31:47.505Z,22.32
2017-06-27T07:32:47.440Z,22.28
2017-06-27T07:33:47.374Z,22.33
2017-06-27T07:34:47.312Z,22.32
2017-06-27T07:35:47.249Z,22.33
2017-06-27T07:36:47.186Z,22.38
2017-06-27T07:37:47.125Z,22.3
2017-06-27T07:38:47.078Z,22.35
2017-06-27T07:39:46.995Z,22.39
2017-06-27T07:40:46.949Z,22.25
2017-06-27T07:41:46.876Z,22.35
2017-06-27T07:42:46.803Z,22.35
2017-06-27T07:43:46.747Z,22.41
2017-06-27T07:44:46.694Z,22.38
2017-06-27T07:45:46.614Z,22.39
2017-06-27T07:46:46.227Z,22.41
2017-06-27T07:47:46.160Z,22.36
2017-06-27T07:48:46.426Z,22.26
2017-06-27T07:49:46.363Z,22.32
2017-06-27T07:50:46.301Z,22.32
2017-06-27T07:51:46.235Z,22.36
2017-06-27T07:52:46.183Z,22.41
2017-06-27T07:53:46.125Z,22.33
2017-06-27T07:54:45.722Z,22.35
2017-06-27T07:55:45.988Z,22.35
2017-06-27T07:56:45.594Z,22.36
2017-06-27T07:57:45.864Z,22.36
2017-06-27T07:58:45.798Z,22.36
2017-06-27T07:59:45.733Z,22.32
2017-06-27T08:00:45.669Z,22.35
2017-06-27T08:01:45.607Z,22.39
2017-06-27T08:02:45.545Z,22.43
2017-06-27T08:03:45.482Z,22.41
2017-06-27T08:04:45.426Z,22.36
2017-06-27T08:05:45.607Z,22.45
2017-06-27T08:06:45.303Z,22.41
2017-06-27T08:07:45.251Z,22.45
2017-06-27T08:08:45.167Z,22.44
2017-06-27T08:09:45.103Z,22.6
2017-06-27T08:10:45.295Z,22.53
2017-06-27T08:11:44.982Z,22.53
2017-06-27T08:12:44.915Z,22.55
2017-06-27T08:13:44.848Z,22.51
2017-06-27T08:14:44.800Z,22.53
2017-06-27T08:15:44.744Z,22.66
2017-06-27T08:16:44.758Z,22.7
2017-06-27T08:17:44.598Z,22.7
2017-06-27T08:18:44.544Z,22.75
2017-06-27T08:19:44.491Z,22.73
2017-06-27T08:20:44.103Z,22.69
2017-06-27T08:21:44.346Z,22.7
2017-06-27T08:22:44.295Z,22.83
2017-06-27T08:23:44.222Z,22.76
2017-06-27T08:24:44.160Z,22.75
2017-06-27T08:25:44.126Z,22.73
2017-06-27T08:26:44.055Z,22.83
2017-06-27T08:27:44.190Z,22.81
2017-06-27T08:28:43.906Z,22.76
2017-06-27T08:29:43.844Z,22.78
2017-06-27T08:30:43.786Z,22.83
2017-06-27T08:31:43.393Z,22.76
2017-06-27T08:32:43.665Z,22.87
2017-06-27T08:33:43.590Z,22.8
2017-06-27T08:34:43.530Z,22.88
2017-06-27T08:35:43.465Z,22.98
2017-06-27T08:36:43.078Z,22.94
2017-06-27T08:37:43.341Z,22.9
2017-06-27T08:38:43.276Z,22.96
2017-06-27T08:39:43.214Z,22.96
2017-06-27T08:40:43.256Z,22.93
2017-06-27T08:41:43.450Z,22.87
2017-06-27T08:42:43.026Z,22.9
2017-06-27T08:43:42.961Z,22.96
2017-06-27T08:44:42.911Z,22.98
2017-06-27T08:45:42.839Z,23.02
2017-06-27T08:46:42.879Z,23
2017-06-27T08:47:42.715Z,22.99
2017-06-27T08:48:42.650Z,23.03
2017-06-27T08:49:42.587Z,23.02
2017-06-27T08:50:42.526Z,23.02
2017-06-27T08:51:42.460Z,23.03
2017-06-27T08:52:42.410Z,23.02
2017-06-27T08:53:42.338Z,23.03
2017-06-27T08:54:42.273Z,23.05
2017-06-27T08:55:42.211Z,23.08
2017-06-27T08:56:42.151Z,23.06
2017-06-27T08:57:42.085Z,23.1
2017-06-27T08:58:42.024Z,23.13
2017-06-27T08:59:41.634Z,23.08
2017-06-27T09:00:41.906Z,23.17
2017-06-27T09:01:41.838Z,23.12
2017-06-27T09:02:41.445Z,23.09
2017-06-27T09:03:41.726Z,23.09
2017-06-27T09:04:41.648Z,23.05
2017-06-27T09:05:41.586Z,23.1
2017-06-27T09:06:41.529Z,23.08
2017-06-27T09:07:41.465Z,23.02
2017-06-27T09:08:41.405Z,23.05
2017-06-27T09:09:41.336Z,23.08
2017-06-27T09:10:40.949Z,23.03
2017-06-27T09:11:41.212Z,23.06
2017-06-27T09:12:41.155Z,23.13
2017-06-27T09:13:41.088Z,23.17
2017-06-27T09:14:41.025Z,23.1
2017-06-27T09:15:40.963Z,23.09
2017-06-27T09:16:40.900Z,23.1
2017-06-27T09:17:41.085Z,23.12
2017-06-27T09:18:40.776Z,23.1
2017-06-27T09:19:40.713Z,23.13
2017-06-27T09:20:40.650Z,23.12
2017-06-27T09:21:40.590Z,23.17
2017-06-27T09:22:40.349Z,23.15
2017-06-27T09:23:40.149Z,23.2
2017-06-27T09:24:40.402Z,23.21
2017-06-27T09:25:40.352Z,23.15
2017-06-27T09:26:40.275Z,23.18
2017-06-27T09:27:40.564Z,23.23
2017-06-27T09:28:40.154Z,23.24
2017-06-27T09:29:40.091Z,23.23
2017-06-27T09:30:39.704Z,23.25
2017-06-27T09:31:39.965Z,23.23
2017-06-27T09:32:39.902Z,23.27
2017-06-27T09:33:39.521Z,23.21
2017-06-27T09:34:39.468Z,23.23
2017-06-27T09:35:39.752Z,23.25
2017-06-27T09:36:39.000Z,23.25
2017-06-27T09:37:39.591Z,23.23
2017-06-27T09:38:39.204Z,23.31
2017-06-27T09:39:39.469Z,23.32
2017-06-27T09:40:39.557Z,23.34
2017-06-27T09:41:39.342Z,23.36
2017-06-27T09:42:39.285Z,23.23
2017-06-27T09:43:39.224Z,23.32
2017-06-27T09:44:39.158Z,23.27
2017-06-27T09:45:38.767Z,23.4
2017-06-27T09:46:39.031Z,23.32
2017-06-27T09:47:38.968Z,23.23
2017-06-27T09:48:38.905Z,23.24
2017-06-27T09:49:38.871Z,23.34
2017-06-27T09:50:38.793Z,23.39
2017-06-27T09:51:38.391Z,23.32
2017-06-27T09:52:38.660Z,23.34
2017-06-27T09:53:38.601Z,23.39
2017-06-27T09:54:38.535Z,23.4
2017-06-27T09:55:38.474Z,23.46
2017-06-27T09:56:38.410Z,23.44
2017-06-27T09:57:38.346Z,23.48
2017-06-27T09:58:38.282Z,23.51
2017-06-27T09:59:38.224Z,23.43
2017-06-27T10:00:38.163Z,23.46
2017-06-27T10:01:38.096Z,23.47
2017-06-27T10:02:37.384Z,23.39
2017-06-27T10:03:37.979Z,23.47
2017-06-27T10:04:37.585Z,23.54
2017-06-27T10:05:37.850Z,23.51
2017-06-27T10:06:37.459Z,23.43
2017-06-27T10:07:37.726Z,23.41
2017-06-27T10:08:37.664Z,23.36
2017-06-27T10:09:37.276Z,23.31
2017-06-27T10:10:37.551Z,23.32
2017-06-27T10:11:37.149Z,23.27
2017-06-27T10:12:37.103Z,23.36
2017-06-27T10:13:37.353Z,23.25
2017-06-27T10:14:37.292Z,23.2
2017-06-27T10:15:37.331Z,23.18
2017-06-27T10:16:36.839Z,23.24
2017-06-27T10:17:37.117Z,23.21
2017-06-27T10:18:36.714Z,23.23
2017-06-27T10:19:36.995Z,23.15
2017-06-27T10:20:37.073Z,23.13
2017-06-27T10:21:36.859Z,23.17
2017-06-27T10:22:36.800Z,23.12
2017-06-27T10:23:36.740Z,23.13
2017-06-27T10:24:36.666Z,23.15
2017-06-27T10:25:36.605Z,23.21
2017-06-27T10:26:36.219Z,23.15
2017-06-27T10:27:36.157Z,23.13
2017-06-27T10:28:36.088Z,23.13
2017-06-27T10:29:36.374Z,23.1
2017-06-27T10:30:36.298Z,23.13
2017-06-27T10:31:36.234Z,23.15
2017-06-27T10:32:36.168Z,23.08
2017-06-27T10:33:36.108Z,23.09
2017-06-27T10:34:36.042Z,23.08
2017-06-27T10:35:35.980Z,23.15
2017-06-27T10:36:35.922Z,23.08
2017-06-27T10:37:35.869Z,23.08
2017-06-27T10:38:35.791Z,23.05
2017-06-27T10:39:35.407Z,23.09
2017-06-27T10:40:35.668Z,23.09
2017-06-27T10:41:35.280Z,23.09
2017-06-27T10:42:35.215Z,23.09
2017-06-27T10:43:35.484Z,23.15
2017-06-27T10:44:35.422Z,23.05
2017-06-27T10:45:35.031Z,23.08
2017-06-27T10:46:34.972Z,23.03
2017-06-27T10:47:35.236Z,23.08
2017-06-27T10:48:35.172Z,23.09
2017-06-27T10:49:34.783Z,23.09
2017-06-27T10:50:35.051Z,23.1
2017-06-27T10:51:34.993Z,23.08
2017-06-27T10:52:34.931Z,23.05
2017-06-27T10:53:34.861Z,23.09
2017-06-27T10:54:34.799Z,23.05
2017-06-27T10:55:34.735Z,23.08
2017-06-27T10:56:34.670Z,23.08
2017-06-27T10:57:34.287Z,23.02
2017-06-27T10:58:34.561Z,23.03
2017-06-27T10:59:34.482Z,23.02
2017-06-27T11:00:34.094Z,23
2017-06-27T11:01:34.358Z,23.08
2017-06-27T11:02:34.294Z,23.05
2017-06-27T11:03:34.237Z,23.02
2017-06-27T11:04:33.847Z,23.06
2017-06-27T11:05:34.109Z,23.02
2017-06-27T11:06:33.725Z,23.02
2017-06-27T11:07:33.670Z,23.02
2017-06-27T11:08:33.921Z,23.02
2017-06-27T11:09:33.535Z,23.02
2017-06-27T11:10:33.798Z,23.03
2017-06-27T11:11:33.411Z,23.05
2017-06-27T11:12:33.677Z,23.08
2017-06-27T11:13:33.629Z,23.1
2017-06-27T11:14:33.544Z,23.08
2017-06-27T11:15:33.498Z,23.1
2017-06-27T11:16:33.422Z,23.08
2017-06-27T11:17:33.036Z,23.13
2017-06-27T11:18:33.314Z,23.09
2017-06-27T11:19:33.233Z,23.06
2017-06-27T11:20:33.012Z,23.17
2017-06-27T11:21:32.782Z,23.12
2017-06-27T11:22:32.720Z,23.12
2017-06-27T11:23:32.989Z,23.09
2017-06-27T11:24:32.923Z,23.18
2017-06-27T11:25:32.861Z,23.17
2017-06-27T11:26:32.798Z,23.17
2017-06-27T11:27:32.734Z,23.17
2017-06-27T11:28:32.671Z,23.12
2017-06-27T11:29:32.615Z,23.13
2017-06-27T11:30:33.162Z,23.13
2017-06-27T11:31:32.484Z,23.13
2017-06-27T11:32:32.433Z,23.17
2017-06-27T11:33:32.363Z,23.23
2017-06-27T11:34:32.305Z,23.24
2017-06-27T11:35:32.241Z,23.15
2017-06-27T11:36:32.198Z,23.24
2017-06-27T11:37:32.112Z,23.23
2017-06-27T11:38:32.049Z,23.23
2017-06-27T11:39:31.988Z,23.21
2017-06-27T11:40:31.927Z,23.24
2017-06-27T11:41:31.879Z,23.23
2017-06-27T11:42:31.799Z,23.24
2017-06-27T11:43:31.734Z,23.23
2017-06-27T11:44:31.675Z,23.24
2017-06-27T11:45:31.611Z,23.21
2017-06-27T11:46:31.557Z,23.23
2017-06-27T11:47:31.498Z,23.23
2017-06-27T11:48:31.426Z,23.21
2017-06-27T11:49:31.373Z,23.13
2017-06-27T11:50:31.306Z,23.24
2017-06-27T11:51:31.241Z,23.2
2017-06-27T11:52:30.872Z,23.13
2017-06-27T11:53:31.116Z,23.1
2017-06-27T11:54:31.052Z,23.15
2017-06-27T11:55:30.995Z,23.17
2017-06-27T11:56:30.926Z,23.12
2017-06-27T11:57:30.540Z,23.18
2017-06-27T11:58:30.804Z,23.17
2017-06-27T11:59:30.743Z,23.15
2017-06-27T12:00:30.680Z,23.13
2017-06-27T12:01:30.745Z,23.13
2017-06-27T12:02:30.563Z,23.18
2017-06-27T12:03:30.498Z,23.17
2017-06-27T12:04:30.103Z,23.17
2017-06-27T12:05:30.470Z,23.15
2017-06-27T12:06:30.307Z,23.17
2017-06-27T12:07:30.662Z,23.18
2017-06-27T12:08:30.215Z,23.17
2017-06-27T12:09:30.395Z,23.12
2017-06-27T12:10:30.156Z,23.13
2017-06-27T12:11:30.045Z,23.12
2017-06-27T12:12:29.607Z,23.13
2017-06-27T12:13:29.876Z,23.1
2017-06-27T12:14:30.024Z,23.1
2017-06-27T12:15:29.416Z,23.12
2017-06-27T12:16:29.714Z,23.13
2017-06-27T12:17:29.758Z,23.12
2017-06-27T12:18:29.556Z,23.13
2017-06-27T12:19:29.501Z,23.1
2017-06-27T12:20:29.443Z,23.18
2017-06-27T12:21:29.372Z,23.1
2017-06-27T12:22:29.313Z,23.1
2017-06-27T12:23:29.137Z,23.06
2017-06-27T12:24:29.019Z,23.13
2017-06-27T12:25:29.139Z,23.13
2017-06-27T12:26:29.270Z,23.12
2017-06-27T12:27:28.996Z,23.1
2017-06-27T12:28:28.987Z,23.12
2017-06-27T12:29:28.625Z,23.12
2017-06-27T12:30:28.796Z,23.08
2017-06-27T12:31:29.188Z,23.18
2017-06-27T12:32:28.385Z,23.09
2017-06-27T12:33:28.679Z,23.09
2017-06-27T12:34:28.598Z,23.18
2017-06-27T12:35:28.569Z,23.03
2017-06-27T12:36:28.455Z,23.09
2017-06-27T12:37:28.093Z,23.1
2017-06-27T12:38:28.344Z,23.05
2017-06-27T12:39:27.935Z,23.1
2017-06-27T12:40:28.205Z,23.09
2017-06-27T12:41:28.247Z,23.09
2017-06-27T12:42:28.072Z,23.1
2017-06-27T12:43:28.047Z,23.09
2017-06-27T12:44:27.943Z,23.09
2017-06-27T12:45:27.250Z,23.05
2017-06-27T12:46:27.495Z,23.1
2017-06-27T12:47:27.759Z,23.02
2017-06-27T12:48:27.437Z,23.03
2017-06-27T12:49:27.654Z,23.02
2017-06-27T12:50:27.599Z,23.05
2017-06-27T12:51:27.506Z,23.06
2017-06-27T12:52:27.118Z,23.09
2017-06-27T12:53:27.382Z,23.03
2017-06-27T12:54:27.034Z,23.02
2017-06-27T12:55:26.930Z,23.08
2017-06-27T12:56:26.872Z,23.03